sensor_id;sensor_type;location;lat;lon;timestamp;pressure;altitude;pressure_sealevel;temperature;humidity
72285;BME280;60220;53.552;10.092;2023-02-18T00:02:18;101390.28;;;7.11;73.41
72285;BME280;60220;53.552;10.092;2023-02-18T00:04:43;101386.81;;;7.15;73.41
72285;BME280;60220;53.552;10.092;2023-02-18T00:07:09;101392.06;;;7.18;73.38
72285;BME280;60220;53.552;10.092;2023-02-18T00:09:38;101396.25;;;7.04;74.02
72285;BME280;60220;53.552;10.092;2023-02-18T00:12:04;101380.56;;;7.03;74.19
72285;BME280;60220;53.552;10.092;2023-02-18T00:14:31;101393.81;;;7.19;73.95
72285;BME280;60220;53.552;10.092;2023-02-18T00:16:57;101392.22;;;7.30;73.60
72285;BME280;60220;53.552;10.092;2023-02-18T00:19:23;101389.56;;;7.26;73.20
72285;BME280;60220;53.552;10.092;2023-02-18T00:21:49;101394.78;;;7.26;72.55
72285;BME280;60220;53.552;10.092;2023-02-18T00:24:15;101396.59;;;7.34;72.63
72285;BME280;60220;53.552;10.092;2023-02-18T00:26:42;101394.94;;;7.41;72.68
72285;BME280;60220;53.552;10.092;2023-02-18T00:29:08;101397.47;;;7.33;72.23
72285;BME280;60220;53.552;10.092;2023-02-18T00:31:35;101406.06;;;7.23;73.30
72285;BME280;60220;53.552;10.092;2023-02-18T00:34:03;101401.72;;;7.24;72.67
72285;BME280;60220;53.552;10.092;2023-02-18T00:36:29;101408.50;;;7.07;73.34
72285;BME280;60220;53.552;10.092;2023-02-18T00:38:57;101409.66;;;7.34;73.50
72285;BME280;60220;53.552;10.092;2023-02-18T00:41:25;101410.19;;;7.05;74.21
72285;BME280;60220;53.552;10.092;2023-02-18T00:43:53;101412.75;;;7.00;74.27
72285;BME280;60220;53.552;10.092;2023-02-18T00:46:20;101412.66;;;6.94;74.70
72285;BME280;60220;53.552;10.092;2023-02-18T00:48:47;101415.31;;;6.96;74.34
72285;BME280;60220;53.552;10.092;2023-02-18T00:51:13;101416.00;;;6.81;75.19
72285;BME280;60220;53.552;10.092;2023-02-18T00:53:39;101408.31;;;6.95;74.66
72285;BME280;60220;53.552;10.092;2023-02-18T00:56:06;101416.19;;;6.96;74.61
72285;BME280;60220;53.552;10.092;2023-02-18T00:58:32;101412.75;;;7.00;74.08
72285;BME280;60220;53.552;10.092;2023-02-18T01:01:01;101408.63;;;7.20;74.00
72285;BME280;60220;53.552;10.092;2023-02-18T01:03:27;101413.00;;;7.21;73.63
72285;BME280;60220;53.552;10.092;2023-02-18T01:05:54;101412.91;;;7.12;73.45
72285;BME280;60220;53.552;10.092;2023-02-18T01:08:21;101412.91;;;7.12;73.62
72285;BME280;60220;53.552;10.092;2023-02-18T01:10:54;101414.31;;;7.61;72.29
72285;BME280;60220;53.552;10.092;2023-02-18T01:13:20;101417.28;;;7.18;72.90
72285;BME280;60220;53.552;10.092;2023-02-18T01:15:46;101418.91;;;7.05;73.20
72285;BME280;60220;53.552;10.092;2023-02-18T01:18:13;101413.94;;;7.28;72.65
72285;BME280;60220;53.552;10.092;2023-02-18T01:20:41;101421.13;;;7.49;72.27
72285;BME280;60220;53.552;10.092;2023-02-18T01:23:08;101418.19;;;7.18;72.66
72285;BME280;60220;53.552;10.092;2023-02-18T01:25:36;101422.94;;;7.54;72.38
72285;BME280;60220;53.552;10.092;2023-02-18T01:28:03;101422.47;;;7.12;72.69
72285;BME280;60220;53.552;10.092;2023-02-18T01:30:32;101416.28;;;7.05;73.03
72285;BME280;60220;53.552;10.092;2023-02-18T01:32:58;101411.88;;;7.00;74.07
72285;BME280;60220;53.552;10.092;2023-02-18T01:35:24;101413.38;;;6.81;74.84
72285;BME280;60220;53.552;10.092;2023-02-18T01:37:51;101429.88;;;6.80;74.79
72285;BME280;60220;53.552;10.092;2023-02-18T01:40:20;101423.75;;;6.76;75.03
72285;BME280;60220;53.552;10.092;2023-02-18T01:42:47;101415.94;;;6.78;75.02
72285;BME280;60220;53.552;10.092;2023-02-18T01:45:39;101420.47;;;6.92;75.09
72285;BME280;60220;53.552;10.092;2023-02-18T01:48:09;101415.31;;;6.96;74.56
72285;BME280;60220;53.552;10.092;2023-02-18T01:50:41;101408.41;;;7.01;74.33
72285;BME280;60220;53.552;10.092;2023-02-18T01:53:14;101403.06;;;6.90;74.98
72285;BME280;60220;53.552;10.092;2023-02-18T01:55:42;101398.56;;;6.80;75.46
72285;BME280;60220;53.552;10.092;2023-02-18T01:58:10;101398.75;;;6.92;74.77
72285;BME280;60220;53.552;10.092;2023-02-18T02:00:39;101404.00;;;6.98;75.26
72285;BME280;60220;53.552;10.092;2023-02-18T02:03:05;101400.47;;;6.93;75.00
72285;BME280;60220;53.552;10.092;2023-02-18T02:05:32;101389.84;;;6.78;75.66
72285;BME280;60220;53.552;10.092;2023-02-18T02:08:00;101391.47;;;6.67;75.61
72285;BME280;60220;53.552;10.092;2023-02-18T02:10:41;101391.97;;;6.41;76.50
72285;BME280;60220;53.552;10.092;2023-02-18T02:13:17;101394.22;;;6.77;76.43
72285;BME280;60220;53.552;10.092;2023-02-18T02:15:48;101393.34;;;6.80;76.18
72285;BME280;60220;53.552;10.092;2023-02-18T02:18:40;101391.56;;;6.76;75.91
72285;BME280;60220;53.552;10.092;2023-02-18T02:21:39;101396.00;;;6.83;75.47
72285;BME280;60220;53.552;10.092;2023-02-18T02:27:28;101395.75;;;6.62;75.77
72285;BME280;60220;53.552;10.092;2023-02-18T02:33:17;101396.13;;;6.27;76.90
72285;BME280;60220;53.552;10.092;2023-02-18T02:35:52;101394.53;;;6.38;77.45
72285;BME280;60220;53.552;10.092;2023-02-18T02:38:24;101389.38;;;6.41;76.12
72285;BME280;60220;53.552;10.092;2023-02-18T02:40:57;101382.16;;;6.25;76.78
72285;BME280;60220;53.552;10.092;2023-02-18T02:43:32;101379.63;;;6.30;77.12
72285;BME280;60220;53.552;10.092;2023-02-18T02:46:07;101383.19;;;6.35;77.03
72285;BME280;60220;53.552;10.092;2023-02-18T02:48:42;101375.16;;;6.84;75.50
72285;BME280;60220;53.552;10.092;2023-02-18T02:51:11;101370.44;;;6.56;75.82
72285;BME280;60220;53.552;10.092;2023-02-18T02:53:40;101370.53;;;6.64;75.51
72285;BME280;60220;53.552;10.092;2023-02-18T02:56:10;101366.31;;;6.72;75.43
72285;BME280;60220;53.552;10.092;2023-02-18T02:58:38;101365.00;;;6.39;75.52
72285;BME280;60220;53.552;10.092;2023-02-18T03:01:19;101367.97;;;6.67;75.35
72285;BME280;60220;53.552;10.092;2023-02-18T03:04:13;101365.19;;;6.55;75.89
72285;BME280;60220;53.552;10.092;2023-02-18T03:06:57;101363.00;;;6.86;75.14
72285;BME280;60220;53.552;10.092;2023-02-18T03:09:36;101355.41;;;6.37;75.82
72285;BME280;60220;53.552;10.092;2023-02-18T03:12:12;101359.88;;;6.45;76.13
72285;BME280;60220;53.552;10.092;2023-02-18T03:14:46;101362.38;;;6.39;76.67
72285;BME280;60220;53.552;10.092;2023-02-18T03:17:22;101369.38;;;6.43;76.11
72285;BME280;60220;53.552;10.092;2023-02-18T03:19:54;101359.78;;;6.39;76.20
72285;BME280;60220;53.552;10.092;2023-02-18T03:22:25;101366.78;;;6.42;76.50
72285;BME280;60220;53.552;10.092;2023-02-18T03:24:54;101359.13;;;6.56;76.31
72285;BME280;60220;53.552;10.092;2023-02-18T03:27:23;101365.56;;;6.83;75.50
72285;BME280;60220;53.552;10.092;2023-02-18T03:29:54;101361.97;;;6.74;75.55
72285;BME280;60220;53.552;10.092;2023-02-18T03:32:22;101369.03;;;6.84;75.87
72285;BME280;60220;53.552;10.092;2023-02-18T03:34:52;101356.50;;;6.54;76.31
72285;BME280;60220;53.552;10.092;2023-02-18T03:37:22;101370.03;;;6.92;75.73
72285;BME280;60220;53.552;10.092;2023-02-18T03:39:51;101361.88;;;6.68;75.93
72285;BME280;60220;53.552;10.092;2023-02-18T03:42:24;101360.25;;;6.76;75.87
72285;BME280;60220;53.552;10.092;2023-02-18T03:44:53;101364.69;;;6.83;75.42
72285;BME280;60220;53.552;10.092;2023-02-18T03:47:19;101367.38;;;6.89;75.05
72285;BME280;60220;53.552;10.092;2023-02-18T03:49:45;101366.34;;;6.78;75.24
72285;BME280;60220;53.552;10.092;2023-02-18T03:52:11;101373.81;;;7.17;74.56
72285;BME280;60220;53.552;10.092;2023-02-18T03:54:40;101362.31;;;7.01;74.67
72285;BME280;60220;53.552;10.092;2023-02-18T03:57:06;101361.50;;;7.08;74.69
72285;BME280;60220;53.552;10.092;2023-02-18T03:59:32;101358.50;;;6.75;74.80
72285;BME280;60220;53.552;10.092;2023-02-18T04:01:58;101356.63;;;6.62;75.11
72285;BME280;60220;53.552;10.092;2023-02-18T04:04:25;101361.50;;;7.07;73.51
72285;BME280;60220;53.552;10.092;2023-02-18T04:06:51;101360.53;;;7.00;74.78
72285;BME280;60220;53.552;10.092;2023-02-18T04:09:17;101364.91;;;7.03;72.81
72285;BME280;60220;53.552;10.092;2023-02-18T04:11:44;101369.13;;;6.90;73.98
72285;BME280;60220;53.552;10.092;2023-02-18T04:14:12;101361.19;;;6.81;74.08
72285;BME280;60220;53.552;10.092;2023-02-18T04:16:39;101361.13;;;6.78;74.48
72285;BME280;60220;53.552;10.092;2023-02-18T04:19:07;101360.38;;;6.85;74.82
72285;BME280;60220;53.552;10.092;2023-02-18T04:21:33;101366.69;;;7.05;74.36
72285;BME280;60220;53.552;10.092;2023-02-18T04:24:00;101350.00;;;6.92;75.49
72285;BME280;60220;53.552;10.092;2023-02-18T04:26:26;101353.19;;;6.66;76.46
72285;BME280;60220;53.552;10.092;2023-02-18T04:28:54;101345.34;;;6.66;77.00
72285;BME280;60220;53.552;10.092;2023-02-18T04:31:20;101335.78;;;6.68;76.88
72285;BME280;60220;53.552;10.092;2023-02-18T04:33:46;101327.84;;;6.59;77.18
72285;BME280;60220;53.552;10.092;2023-02-18T04:36:12;101326.91;;;6.51;77.21
72285;BME280;60220;53.552;10.092;2023-02-18T04:38:38;101322.47;;;6.45;78.05
72285;BME280;60220;53.552;10.092;2023-02-18T04:41:08;101313.75;;;6.43;78.42
72285;BME280;60220;53.552;10.092;2023-02-18T04:43:37;101307.28;;;6.83;77.82
72285;BME280;60220;53.552;10.092;2023-02-18T04:46:04;101311.25;;;6.51;78.20
72285;BME280;60220;53.552;10.092;2023-02-18T04:48:32;101310.47;;;6.56;78.32
72285;BME280;60220;53.552;10.092;2023-02-18T04:50:59;101308.78;;;6.63;77.83
72285;BME280;60220;53.552;10.092;2023-02-18T04:53:25;101305.25;;;6.56;77.95
72285;BME280;60220;53.552;10.092;2023-02-18T04:55:52;101307.97;;;6.67;78.77
72285;BME280;60220;53.552;10.092;2023-02-18T04:58:19;101306.31;;;6.75;77.98
72285;BME280;60220;53.552;10.092;2023-02-18T05:00:45;101309.78;;;6.74;76.73
72285;BME280;60220;53.552;10.092;2023-02-18T05:03:13;101315.75;;;6.64;77.85
72285;BME280;60220;53.552;10.092;2023-02-18T05:05:40;101315.81;;;6.67;77.59
72285;BME280;60220;53.552;10.092;2023-02-18T05:08:09;101311.91;;;7.08;77.18
72285;BME280;60220;53.552;10.092;2023-02-18T05:10:37;101309.50;;;7.29;75.19
72285;BME280;60220;53.552;10.092;2023-02-18T05:13:03;101312.72;;;7.03;76.49
72285;BME280;60220;53.552;10.092;2023-02-18T05:15:31;101304.63;;;6.77;77.23
72285;BME280;60220;53.552;10.092;2023-02-18T05:17:57;101302.72;;;6.64;77.84
72285;BME280;60220;53.552;10.092;2023-02-18T05:20:23;101306.41;;;6.84;78.19
72285;BME280;60220;53.552;10.092;2023-02-18T05:22:49;101302.09;;;6.84;77.77
72285;BME280;60220;53.552;10.092;2023-02-18T05:25:15;101292.19;;;6.58;79.03
72285;BME280;60220;53.552;10.092;2023-02-18T05:27:44;101292.34;;;6.70;79.19
72285;BME280;60220;53.552;10.092;2023-02-18T05:30:10;101292.03;;;7.24;78.24
72285;BME280;60220;53.552;10.092;2023-02-18T05:32:36;101295.09;;;6.83;78.34
72285;BME280;60220;53.552;10.092;2023-02-18T05:35:03;101281.88;;;6.68;78.99
72285;BME280;60220;53.552;10.092;2023-02-18T05:37:30;101284.16;;;6.39;80.75
72285;BME280;60220;53.552;10.092;2023-02-18T05:39:56;101269.78;;;6.02;82.20
72285;BME280;60220;53.552;10.092;2023-02-18T05:42:22;101282.44;;;6.40;82.00
72285;BME280;60220;53.552;10.092;2023-02-18T05:44:48;101281.19;;;6.83;81.68
72285;BME280;60220;53.552;10.092;2023-02-18T05:47:14;101271.53;;;6.74;81.76
72285;BME280;60220;53.552;10.092;2023-02-18T05:49:41;101268.22;;;6.89;81.31
72285;BME280;60220;53.552;10.092;2023-02-18T05:52:08;101264.75;;;6.93;80.54
72285;BME280;60220;53.552;10.092;2023-02-18T05:54:36;101263.13;;;7.01;81.14
72285;BME280;60220;53.552;10.092;2023-02-18T05:57:04;101259.06;;;6.47;81.62
72285;BME280;60220;53.552;10.092;2023-02-18T05:59:33;101265.44;;;6.72;81.86
72285;BME280;60220;53.552;10.092;2023-02-18T06:01:59;101262.88;;;6.77;81.61
72285;BME280;60220;53.552;10.092;2023-02-18T06:04:26;101281.03;;;6.66;82.24
72285;BME280;60220;53.552;10.092;2023-02-18T06:06:52;101256.31;;;6.35;82.99
72285;BME280;60220;53.552;10.092;2023-02-18T06:09:19;101253.50;;;6.20;83.13
72285;BME280;60220;53.552;10.092;2023-02-18T06:11:45;101247.81;;;6.53;83.96
72285;BME280;60220;53.552;10.092;2023-02-18T06:14:11;101245.78;;;7.06;82.48
72285;BME280;60220;53.552;10.092;2023-02-18T06:16:40;101256.69;;;6.69;82.08
72285;BME280;60220;53.552;10.092;2023-02-18T06:19:08;101253.84;;;6.47;82.49
72285;BME280;60220;53.552;10.092;2023-02-18T06:21:34;101241.47;;;6.33;83.19
72285;BME280;60220;53.552;10.092;2023-02-18T06:24:00;101239.69;;;6.29;84.18
72285;BME280;60220;53.552;10.092;2023-02-18T06:26:26;101226.91;;;6.48;83.78
72285;BME280;60220;53.552;10.092;2023-02-18T06:28:53;101222.41;;;6.35;83.08
72285;BME280;60220;53.552;10.092;2023-02-18T06:31:19;101206.91;;;6.49;83.04
72285;BME280;60220;53.552;10.092;2023-02-18T06:33:45;101201.56;;;6.35;82.96
72285;BME280;60220;53.552;10.092;2023-02-18T06:36:11;101206.88;;;6.44;83.35
72285;BME280;60220;53.552;10.092;2023-02-18T06:38:38;101207.28;;;6.85;82.99
72285;BME280;60220;53.552;10.092;2023-02-18T06:41:05;101203.78;;;6.82;82.93
72285;BME280;60220;53.552;10.092;2023-02-18T06:43:33;101209.03;;;6.85;81.88
72285;BME280;60220;53.552;10.092;2023-02-18T06:46:03;101195.00;;;6.74;81.00
72285;BME280;60220;53.552;10.092;2023-02-18T06:48:29;101190.56;;;6.62;82.37
72285;BME280;60220;53.552;10.092;2023-02-18T06:50:55;101172.69;;;7.06;81.93
72285;BME280;60220;53.552;10.092;2023-02-18T06:53:21;101181.16;;;6.81;80.39
72285;BME280;60220;53.552;10.092;2023-02-18T06:55:47;101170.59;;;6.69;81.74
72285;BME280;60220;53.552;10.092;2023-02-18T06:58:14;101168.97;;;6.83;82.22
72285;BME280;60220;53.552;10.092;2023-02-18T07:00:42;101155.31;;;7.11;81.15
72285;BME280;60220;53.552;10.092;2023-02-18T07:03:10;101151.75;;;6.97;82.05
72285;BME280;60220;53.552;10.092;2023-02-18T07:05:37;101150.31;;;7.48;80.68
72285;BME280;60220;53.552;10.092;2023-02-18T07:08:03;101136.09;;;7.00;79.62
72285;BME280;60220;53.552;10.092;2023-02-18T07:10:29;101139.22;;;6.60;81.76
72285;BME280;60220;53.552;10.092;2023-02-18T07:12:55;101127.09;;;6.68;82.41
72285;BME280;60220;53.552;10.092;2023-02-18T07:15:21;101121.75;;;6.53;82.02
72285;BME280;60220;53.552;10.092;2023-02-18T07:17:48;101120.50;;;7.09;81.71
72285;BME280;60220;53.552;10.092;2023-02-18T07:20:16;101114.31;;;6.97;82.76
72285;BME280;60220;53.552;10.092;2023-02-18T07:22:44;101119.50;;;6.90;81.60
72285;BME280;60220;53.552;10.092;2023-02-18T07:25:10;101130.06;;;7.07;82.75
72285;BME280;60220;53.552;10.092;2023-02-18T07:27:39;101127.56;;;7.25;82.16
72285;BME280;60220;53.552;10.092;2023-02-18T07:30:06;101122.38;;;6.26;83.61
72285;BME280;60220;53.552;10.092;2023-02-18T07:32:32;101109.50;;;6.42;84.80
72285;BME280;60220;53.552;10.092;2023-02-18T07:35:01;101097.84;;;7.05;83.89
72285;BME280;60220;53.552;10.092;2023-02-18T07:37:28;101082.97;;;6.93;81.95
72285;BME280;60220;53.552;10.092;2023-02-18T07:39:54;101057.22;;;7.57;81.15
72285;BME280;60220;53.552;10.092;2023-02-18T07:42:20;101050.81;;;6.96;81.05
72285;BME280;60220;53.552;10.092;2023-02-18T07:44:46;101050.19;;;7.37;80.79
72285;BME280;60220;53.552;10.092;2023-02-18T07:47:15;101058.09;;;7.55;81.42
72285;BME280;60220;53.552;10.092;2023-02-18T07:49:44;101061.66;;;7.87;79.76
72285;BME280;60220;53.552;10.092;2023-02-18T07:52:13;101047.41;;;7.06;80.36
72285;BME280;60220;53.552;10.092;2023-02-18T07:54:39;101045.59;;;6.99;80.99
72285;BME280;60220;53.552;10.092;2023-02-18T07:57:08;101040.16;;;6.66;82.93
72285;BME280;60220;53.552;10.092;2023-02-18T07:59:34;101023.78;;;6.92;82.54
72285;BME280;60220;53.552;10.092;2023-02-18T08:02:02;101011.06;;;7.58;80.46
72285;BME280;60220;53.552;10.092;2023-02-18T08:04:28;101002.28;;;7.34;81.12
72285;BME280;60220;53.552;10.092;2023-02-18T08:06:54;100995.53;;;8.06;80.25
72285;BME280;60220;53.552;10.092;2023-02-18T08:09:22;100991.13;;;7.84;78.45
72285;BME280;60220;53.552;10.092;2023-02-18T08:11:49;100991.91;;;7.56;79.57
72285;BME280;60220;53.552;10.092;2023-02-18T08:14:15;100981.50;;;7.66;79.16
72285;BME280;60220;53.552;10.092;2023-02-18T08:16:43;100981.56;;;8.10;79.20
72285;BME280;60220;53.552;10.092;2023-02-18T08:19:11;100985.03;;;7.97;78.40
72285;BME280;60220;53.552;10.092;2023-02-18T08:21:37;100987.72;;;8.41;78.32
72285;BME280;60220;53.552;10.092;2023-02-18T08:24:04;100986.75;;;7.80;78.90
72285;BME280;60220;53.552;10.092;2023-02-18T08:26:30;100981.53;;;7.98;79.04
72285;BME280;60220;53.552;10.092;2023-02-18T08:28:57;100986.69;;;7.59;79.61
72285;BME280;60220;53.552;10.092;2023-02-18T08:31:24;100977.88;;;7.29;80.66
72285;BME280;60220;53.552;10.092;2023-02-18T08:33:51;100978.47;;;6.71;83.17
72285;BME280;60220;53.552;10.092;2023-02-18T08:36:17;100975.31;;;7.35;83.33
72285;BME280;60220;53.552;10.092;2023-02-18T08:38:43;100969.13;;;7.12;83.53
72285;BME280;60220;53.552;10.092;2023-02-18T08:41:09;100965.84;;;7.77;82.87
72285;BME280;60220;53.552;10.092;2023-02-18T08:43:38;100973.69;;;7.78;80.96
72285;BME280;60220;53.552;10.092;2023-02-18T08:46:04;100958.91;;;8.00;79.62
72285;BME280;60220;53.552;10.092;2023-02-18T08:48:31;100962.09;;;7.04;82.15
72285;BME280;60220;53.552;10.092;2023-02-18T08:50:57;100946.56;;;7.32;82.13
72285;BME280;60220;53.552;10.092;2023-02-18T08:53:23;100943.19;;;7.76;82.24
72285;BME280;60220;53.552;10.092;2023-02-18T08:55:50;100934.19;;;6.86;82.99
72285;BME280;60220;53.552;10.092;2023-02-18T08:58:18;100929.13;;;7.25;83.98
72285;BME280;60220;53.552;10.092;2023-02-18T09:00:44;100918.72;;;7.34;82.97
72285;BME280;60220;53.552;10.092;2023-02-18T09:03:12;100918.53;;;6.86;84.36
72285;BME280;60220;53.552;10.092;2023-02-18T09:05:38;100918.66;;;7.16;85.36
72285;BME280;60220;53.552;10.092;2023-02-18T09:08:04;100900.31;;;7.03;85.86
72285;BME280;60220;53.552;10.092;2023-02-18T09:10:31;100884.72;;;7.18;85.83
72285;BME280;60220;53.552;10.092;2023-02-18T09:12:56;100884.66;;;7.00;86.53
72285;BME280;60220;53.552;10.092;2023-02-18T09:15:23;100861.19;;;7.04;86.83
72285;BME280;60220;53.552;10.092;2023-02-18T09:17:49;100860.13;;;6.55;87.59
72285;BME280;60220;53.552;10.092;2023-02-18T09:20:15;100854.97;;;6.70;88.24
72285;BME280;60220;53.552;10.092;2023-02-18T09:22:41;100849.94;;;7.25;88.40
72285;BME280;60220;53.552;10.092;2023-02-18T09:25:08;100840.38;;;7.34;87.38
72285;BME280;60220;53.552;10.092;2023-02-18T09:27:34;100840.34;;;7.22;87.40
72285;BME280;60220;53.552;10.092;2023-02-18T09:30:03;100825.56;;;7.29;87.54
72285;BME280;60220;53.552;10.092;2023-02-18T09:32:29;100828.22;;;7.73;86.61
72285;BME280;60220;53.552;10.092;2023-02-18T09:34:55;100826.50;;;7.57;86.98
72285;BME280;60220;53.552;10.092;2023-02-18T09:37:23;100818.63;;;7.40;86.21
72285;BME280;60220;53.552;10.092;2023-02-18T09:39:49;100815.16;;;7.46;85.60
72285;BME280;60220;53.552;10.092;2023-02-18T09:42:17;100808.19;;;7.49;86.07
72285;BME280;60220;53.552;10.092;2023-02-18T09:44:46;100807.25;;;7.09;87.39
72285;BME280;60220;53.552;10.092;2023-02-18T09:47:16;100812.53;;;7.70;87.65
72285;BME280;60220;53.552;10.092;2023-02-18T09:49:48;100796.88;;;7.67;85.79
72285;BME280;60220;53.552;10.092;2023-02-18T09:52:19;100796.88;;;7.37;87.33
72285;BME280;60220;53.552;10.092;2023-02-18T09:54:49;100804.66;;;8.15;86.22
72285;BME280;60220;53.552;10.092;2023-02-18T09:57:21;100796.84;;;7.82;86.31
72285;BME280;60220;53.552;10.092;2023-02-18T09:59:56;100768.91;;;6.75;88.70
72285;BME280;60220;53.552;10.092;2023-02-18T10:02:22;100771.63;;;7.81;88.65
72285;BME280;60220;53.552;10.092;2023-02-18T10:04:49;100763.75;;;7.78;87.68
72285;BME280;60220;53.552;10.092;2023-02-18T10:07:19;100759.44;;;7.24;87.59
72285;BME280;60220;53.552;10.092;2023-02-18T10:09:51;100737.59;;;6.78;91.12
72285;BME280;60220;53.552;10.092;2023-02-18T10:12:20;100769.84;;;7.13;90.88
72285;BME280;60220;53.552;10.092;2023-02-18T10:14:48;100755.84;;;8.14;90.08
72285;BME280;60220;53.552;10.092;2023-02-18T10:17:16;100749.66;;;6.35;91.28
72285;BME280;60220;53.552;10.092;2023-02-18T10:19:45;100732.31;;;6.54;93.28
72285;BME280;60220;53.552;10.092;2023-02-18T10:22:13;100751.59;;;7.07;93.30
72285;BME280;60220;53.552;10.092;2023-02-18T10:24:41;100755.09;;;7.67;91.65
72285;BME280;60220;53.552;10.092;2023-02-18T10:27:17;100748.97;;;7.38;90.50
72285;BME280;60220;53.552;10.092;2023-02-18T10:29:45;100741.13;;;7.77;89.49
72285;BME280;60220;53.552;10.092;2023-02-18T10:32:22;100728.91;;;7.79;87.84
72285;BME280;60220;53.552;10.092;2023-02-18T10:34:52;100733.31;;;7.48;89.16
72285;BME280;60220;53.552;10.092;2023-02-18T10:37:32;100746.34;;;7.80;88.39
72285;BME280;60220;53.552;10.092;2023-02-18T10:40:09;100725.47;;;7.65;89.82
72285;BME280;60220;53.552;10.092;2023-02-18T10:42:50;100725.28;;;8.38;88.08
72285;BME280;60220;53.552;10.092;2023-02-18T10:45:25;100726.25;;;8.00;87.71
72285;BME280;60220;53.552;10.092;2023-02-18T10:48:05;100711.47;;;7.93;87.65
72285;BME280;60220;53.552;10.092;2023-02-18T10:50:36;100697.44;;;8.18;87.64
72285;BME280;60220;53.552;10.092;2023-02-18T10:53:10;100686.94;;;8.29;87.61
72285;BME280;60220;53.552;10.092;2023-02-18T10:55:39;100683.53;;;8.07;88.32
72285;BME280;60220;53.552;10.092;2023-02-18T10:58:24;100675.59;;;8.41;87.67
72285;BME280;60220;53.552;10.092;2023-02-18T11:00:51;100676.50;;;8.18;87.39
72285;BME280;60220;53.552;10.092;2023-02-18T11:03:19;100667.69;;;8.42;87.31
72285;BME280;60220;53.552;10.092;2023-02-18T11:05:50;100655.00;;;9.16;85.94
72285;BME280;60220;53.552;10.092;2023-02-18T11:08:19;100656.69;;;9.20;84.41
72285;BME280;60220;53.552;10.092;2023-02-18T11:10:48;100655.41;;;8.58;85.27
72285;BME280;60220;53.552;10.092;2023-02-18T11:13:17;100648.38;;;8.68;85.80
72285;BME280;60220;53.552;10.092;2023-02-18T11:15:57;100648.38;;;8.69;86.44
72285;BME280;60220;53.552;10.092;2023-02-18T11:18:31;100638.81;;;8.67;86.29
72285;BME280;60220;53.552;10.092;2023-02-18T11:21:03;100639.03;;;9.40;86.34
72285;BME280;60220;53.552;10.092;2023-02-18T11:23:44;100627.28;;;8.90;86.54
72285;BME280;60220;53.552;10.092;2023-02-18T11:26:12;100628.56;;;9.37;86.15
72285;BME280;60220;53.552;10.092;2023-02-18T11:28:42;100617.09;;;9.50;86.16
72285;BME280;60220;53.552;10.092;2023-02-18T11:31:14;100605.81;;;9.45;84.75
72285;BME280;60220;53.552;10.092;2023-02-18T11:33:43;100610.88;;;9.60;85.33
72285;BME280;60220;53.552;10.092;2023-02-18T11:36:18;100597.53;;;9.80;84.92
72285;BME280;60220;53.552;10.092;2023-02-18T11:38:49;100598.81;;;10.19;84.00
72285;BME280;60220;53.552;10.092;2023-02-18T11:41:18;100599.72;;;10.15;82.97
72285;BME280;60220;53.552;10.092;2023-02-18T11:43:51;100599.97;;;9.93;84.24
72285;BME280;60220;53.552;10.092;2023-02-18T11:46:22;100589.16;;;9.49;85.29
72285;BME280;60220;53.552;10.092;2023-02-18T11:48:49;100595.91;;;9.71;86.55
72285;BME280;60220;53.552;10.092;2023-02-18T11:51:18;100596.47;;;9.20;89.59
72285;BME280;60220;53.552;10.092;2023-02-18T11:53:55;100587.69;;;9.25;92.83
72285;BME280;60220;53.552;10.092;2023-02-18T11:56:25;100589.44;;;9.23;95.01
72285;BME280;60220;53.552;10.092;2023-02-18T11:58:52;100593.59;;;9.42;95.98
72285;BME280;60220;53.552;10.092;2023-02-18T12:01:31;100602.25;;;9.49;96.51
72285;BME280;60220;53.552;10.092;2023-02-18T12:04:07;100610.22;;;9.38;97.44
72285;BME280;60220;53.552;10.092;2023-02-18T12:06:37;100615.56;;;9.31;98.43
72285;BME280;60220;53.552;10.092;2023-02-18T12:09:16;100617.06;;;9.51;98.63
72285;BME280;60220;53.552;10.092;2023-02-18T12:11:47;100628.53;;;9.43;98.79
72285;BME280;60220;53.552;10.092;2023-02-18T12:14:17;100639.03;;;9.40;98.94
72285;BME280;60220;53.552;10.092;2023-02-18T12:17:01;100626.53;;;9.66;98.56
72285;BME280;60220;53.552;10.092;2023-02-18T12:20:03;100642.00;;;9.87;98.24
72285;BME280;60220;53.552;10.092;2023-02-18T12:22:41;100626.56;;;9.63;97.94
72285;BME280;60220;53.552;10.092;2023-02-18T12:25:23;100635.06;;;9.83;97.59
72285;BME280;60220;53.552;10.092;2023-02-18T12:27:58;100633.66;;;9.55;97.67
72285;BME280;60220;53.552;10.092;2023-02-18T12:30:35;100638.56;;;9.85;97.34
72285;BME280;60220;53.552;10.092;2023-02-18T12:33:14;100651.13;;;9.56;96.49
72285;BME280;60220;53.552;10.092;2023-02-18T12:35:53;100655.53;;;9.46;96.79
72285;BME280;60220;53.552;10.092;2023-02-18T12:38:41;100651.78;;;9.73;96.94
72285;BME280;60220;53.552;10.092;2023-02-18T12:41:32;100641.50;;;9.54;97.27
72285;BME280;60220;53.552;10.092;2023-02-18T12:44:11;100656.41;;;9.50;97.71
72285;BME280;60220;53.552;10.092;2023-02-18T12:46:49;100667.66;;;9.61;97.64
72285;BME280;60220;53.552;10.092;2023-02-18T12:49:32;100660.06;;;9.34;97.74
72285;BME280;60220;53.552;10.092;2023-02-18T12:52:08;100668.66;;;9.46;97.50
72285;BME280;60220;53.552;10.092;2023-02-18T12:54:53;100668.09;;;9.14;98.15
72285;BME280;60220;53.552;10.092;2023-02-18T12:57:33;100675.81;;;9.29;97.82
72285;BME280;60220;53.552;10.092;2023-02-18T13:00:37;100680.22;;;9.23;98.45
72285;BME280;60220;53.552;10.092;2023-02-18T13:03:30;100680.19;;;9.27;98.49
72285;BME280;60220;53.552;10.092;2023-02-18T13:06:11;100669.78;;;9.21;98.26
72285;BME280;60220;53.552;10.092;2023-02-18T13:08:49;100687.91;;;9.45;97.89
72285;BME280;60220;53.552;10.092;2023-02-18T13:11:27;100680.22;;;9.26;98.11